Terminal Aerodrome Forecast
Issued by NWS

Home | Current Version | Previous Version | Text Only | Print | Product List | Glossary On
Versions: 1 2 3 4 5 6 7 8 9 10 11 12 13 14 15 16 17 18
000
FTUS45 KFGZ 311900 AAA
TAFSEZ
TAF AMD
KSEZ 311920Z 3119/0118 20010G17KT P6SM SCT100 BKN200
      TEMPO 3121/3124 VRB15G25KT 5SM TSRA BKN070CB
     FM010300 VRB06KT P6SM BKN120=

USA.gov is the U.S. government's official web portal to all federal, state and local government web resources and services.